sensor_id;sensor_type;location;lat;lon;timestamp;P1;durP1;ratioP1;P2;durP2;ratioP2
28714;SDS011;15886;49.170;14.572;2023-07-20T00:00:52;2.97;;;2.45;;
28714;SDS011;15886;49.170;14.572;2023-07-20T00:03:22;5.15;;;3.03;;
28714;SDS011;15886;49.170;14.572;2023-07-20T00:05:52;10.45;;;3.42;;
28714;SDS011;15886;49.170;14.572;2023-07-20T00:08:23;4.60;;;2.42;;
28714;SDS011;15886;49.170;14.572;2023-07-20T00:10:52;5.10;;;2.97;;
28714;SDS011;15886;49.170;14.572;2023-07-20T00:13:20;8.98;;;3.13;;
28714;SDS011;15886;49.170;14.572;2023-07-20T00:15:49;4.75;;;2.72;;
28714;SDS011;15886;49.170;14.572;2023-07-20T00:18:19;4.28;;;2.83;;
28714;SDS011;15886;49.170;14.572;2023-07-20T00:20:48;5.85;;;2.88;;
28714;SDS011;15886;49.170;14.572;2023-07-20T00:23:18;9.25;;;3.20;;
28714;SDS011;15886;49.170;14.572;2023-07-20T00:25:51;8.25;;;3.08;;
28714;SDS011;15886;49.170;14.572;2023-07-20T00:28:20;8.35;;;2.53;;
28714;SDS011;15886;49.170;14.572;2023-07-20T00:30:48;11.35;;;2.83;;
28714;SDS011;15886;49.170;14.572;2023-07-20T00:33:19;4.25;;;2.65;;
28714;SDS011;15886;49.170;14.572;2023-07-20T00:35:47;8.13;;;2.40;;
28714;SDS011;15886;49.170;14.572;2023-07-20T00:38:16;5.30;;;2.97;;
28714;SDS011;15886;49.170;14.572;2023-07-20T00:40:44;9.18;;;3.05;;
28714;SDS011;15886;49.170;14.572;2023-07-20T00:43:14;16.42;;;3.05;;
28714;SDS011;15886;49.170;14.572;2023-07-20T00:45:45;5.28;;;2.75;;
28714;SDS011;15886;49.170;14.572;2023-07-20T00:48:15;6.07;;;2.92;;
28714;SDS011;15886;49.170;14.572;2023-07-20T00:50:43;3.92;;;2.90;;
28714;SDS011;15886;49.170;14.572;2023-07-20T00:53:14;7.32;;;3.47;;
28714;SDS011;15886;49.170;14.572;2023-07-20T00:55:44;3.63;;;2.50;;
28714;SDS011;15886;49.170;14.572;2023-07-20T00:58:15;4.47;;;2.55;;
28714;SDS011;15886;49.170;14.572;2023-07-20T01:00:43;5.20;;;3.00;;
28714;SDS011;15886;49.170;14.572;2023-07-20T01:03:11;4.68;;;2.42;;
28714;SDS011;15886;49.170;14.572;2023-07-20T01:05:48;4.85;;;2.85;;
28714;SDS011;15886;49.170;14.572;2023-07-20T01:11:13;5.60;;;2.70;;
28714;SDS011;15886;49.170;14.572;2023-07-20T01:13:45;7.60;;;3.00;;
28714;SDS011;15886;49.170;14.572;2023-07-20T01:16:15;4.53;;;2.83;;
28714;SDS011;15886;49.170;14.572;2023-07-20T01:18:46;4.60;;;2.45;;
28714;SDS011;15886;49.170;14.572;2023-07-20T01:21:18;4.30;;;3.13;;
28714;SDS011;15886;49.170;14.572;2023-07-20T01:29:06;3.95;;;2.72;;
28714;SDS011;15886;49.170;14.572;2023-07-20T01:31:40;6.88;;;3.08;;
28714;SDS011;15886;49.170;14.572;2023-07-20T01:34:12;5.57;;;2.88;;
28714;SDS011;15886;49.170;14.572;2023-07-20T01:36:44;5.97;;;3.60;;
28714;SDS011;15886;49.170;14.572;2023-07-20T01:39:19;5.18;;;3.25;;
28714;SDS011;15886;49.170;14.572;2023-07-20T01:41:49;4.88;;;3.15;;
28714;SDS011;15886;49.170;14.572;2023-07-20T01:44:17;4.63;;;3.33;;
28714;SDS011;15886;49.170;14.572;2023-07-20T01:46:48;10.82;;;2.97;;
28714;SDS011;15886;49.170;14.572;2023-07-20T01:49:18;3.80;;;2.78;;
28714;SDS011;15886;49.170;14.572;2023-07-20T01:51:46;5.57;;;3.17;;
28714;SDS011;15886;49.170;14.572;2023-07-20T01:54:18;7.90;;;3.03;;
28714;SDS011;15886;49.170;14.572;2023-07-20T01:56:47;8.00;;;2.95;;
28714;SDS011;15886;49.170;14.572;2023-07-20T01:59:17;5.80;;;3.00;;
28714;SDS011;15886;49.170;14.572;2023-07-20T02:01:49;5.03;;;3.65;;
28714;SDS011;15886;49.170;14.572;2023-07-20T02:04:17;6.82;;;3.17;;
28714;SDS011;15886;49.170;14.572;2023-07-20T02:06:46;6.93;;;3.17;;
28714;SDS011;15886;49.170;14.572;2023-07-20T02:09:16;6.38;;;3.40;;
28714;SDS011;15886;49.170;14.572;2023-07-20T02:11:44;6.47;;;3.22;;
28714;SDS011;15886;49.170;14.572;2023-07-20T02:14:16;8.52;;;3.40;;
28714;SDS011;15886;49.170;14.572;2023-07-20T02:16:46;5.57;;;2.85;;
28714;SDS011;15886;49.170;14.572;2023-07-20T02:19:24;5.55;;;3.45;;
28714;SDS011;15886;49.170;14.572;2023-07-20T02:21:54;6.00;;;3.40;;
28714;SDS011;15886;49.170;14.572;2023-07-20T02:24:25;11.98;;;3.13;;
28714;SDS011;15886;49.170;14.572;2023-07-20T02:26:55;5.05;;;2.88;;
28714;SDS011;15886;49.170;14.572;2023-07-20T02:29:24;4.68;;;3.00;;
28714;SDS011;15886;49.170;14.572;2023-07-20T02:31:52;5.60;;;3.55;;
28714;SDS011;15886;49.170;14.572;2023-07-20T02:34:20;9.00;;;3.25;;
28714;SDS011;15886;49.170;14.572;2023-07-20T02:36:49;7.68;;;3.28;;
28714;SDS011;15886;49.170;14.572;2023-07-20T02:39:17;9.80;;;3.30;;
28714;SDS011;15886;49.170;14.572;2023-07-20T02:41:45;5.50;;;3.50;;
28714;SDS011;15886;49.170;14.572;2023-07-20T02:44:14;5.55;;;3.47;;
28714;SDS011;15886;49.170;14.572;2023-07-20T02:46:42;6.88;;;4.00;;
28714;SDS011;15886;49.170;14.572;2023-07-20T02:49:10;5.93;;;3.40;;
28714;SDS011;15886;49.170;14.572;2023-07-20T02:51:41;9.57;;;3.55;;
28714;SDS011;15886;49.170;14.572;2023-07-20T02:54:10;5.30;;;3.17;;
28714;SDS011;15886;49.170;14.572;2023-07-20T02:56:40;4.97;;;3.38;;
28714;SDS011;15886;49.170;14.572;2023-07-20T02:59:11;6.38;;;3.60;;
28714;SDS011;15886;49.170;14.572;2023-07-20T03:01:39;8.23;;;3.10;;
28714;SDS011;15886;49.170;14.572;2023-07-20T03:04:09;5.78;;;3.65;;
28714;SDS011;15886;49.170;14.572;2023-07-20T03:06:37;5.75;;;3.75;;
28714;SDS011;15886;49.170;14.572;2023-07-20T03:09:07;4.80;;;2.67;;
28714;SDS011;15886;49.170;14.572;2023-07-20T03:11:37;4.70;;;3.33;;
28714;SDS011;15886;49.170;14.572;2023-07-20T03:14:07;10.93;;;3.45;;
28714;SDS011;15886;49.170;14.572;2023-07-20T03:16:40;7.25;;;3.75;;
28714;SDS011;15886;49.170;14.572;2023-07-20T03:19:08;6.85;;;3.30;;
28714;SDS011;15886;49.170;14.572;2023-07-20T03:21:37;6.93;;;2.97;;
28714;SDS011;15886;49.170;14.572;2023-07-20T03:24:08;7.15;;;3.53;;
28714;SDS011;15886;49.170;14.572;2023-07-20T03:26:36;3.67;;;3.17;;
28714;SDS011;15886;49.170;14.572;2023-07-20T03:29:07;5.30;;;3.05;;
28714;SDS011;15886;49.170;14.572;2023-07-20T03:31:37;5.68;;;2.78;;
28714;SDS011;15886;49.170;14.572;2023-07-20T03:34:08;4.80;;;3.17;;
28714;SDS011;15886;49.170;14.572;2023-07-20T03:36:37;6.22;;;3.08;;
28714;SDS011;15886;49.170;14.572;2023-07-20T03:39:05;8.63;;;3.42;;
28714;SDS011;15886;49.170;14.572;2023-07-20T03:41:34;4.72;;;3.13;;
28714;SDS011;15886;49.170;14.572;2023-07-20T03:44:05;6.63;;;2.92;;
28714;SDS011;15886;49.170;14.572;2023-07-20T03:46:34;5.13;;;2.83;;
28714;SDS011;15886;49.170;14.572;2023-07-20T03:49:04;7.80;;;3.05;;
28714;SDS011;15886;49.170;14.572;2023-07-20T03:51:33;7.43;;;3.03;;
28714;SDS011;15886;49.170;14.572;2023-07-20T03:54:02;6.80;;;2.72;;
28714;SDS011;15886;49.170;14.572;2023-07-20T03:56:32;4.07;;;2.67;;
28714;SDS011;15886;49.170;14.572;2023-07-20T03:59:03;9.80;;;2.05;;
28714;SDS011;15886;49.170;14.572;2023-07-20T04:01:31;5.07;;;2.85;;
28714;SDS011;15886;49.170;14.572;2023-07-20T04:04:06;7.53;;;2.63;;
28714;SDS011;15886;49.170;14.572;2023-07-20T04:06:35;6.75;;;2.95;;
28714;SDS011;15886;49.170;14.572;2023-07-20T04:09:03;4.00;;;2.78;;
28714;SDS011;15886;49.170;14.572;2023-07-20T04:11:34;5.60;;;2.38;;
28714;SDS011;15886;49.170;14.572;2023-07-20T04:14:03;4.95;;;2.78;;
28714;SDS011;15886;49.170;14.572;2023-07-20T04:16:32;3.03;;;2.35;;
28714;SDS011;15886;49.170;14.572;2023-07-20T04:19:00;6.30;;;3.30;;
28714;SDS011;15886;49.170;14.572;2023-07-20T04:21:32;4.75;;;2.75;;
28714;SDS011;15886;49.170;14.572;2023-07-20T04:24:02;5.07;;;2.67;;
28714;SDS011;15886;49.170;14.572;2023-07-20T04:26:32;5.78;;;3.05;;
28714;SDS011;15886;49.170;14.572;2023-07-20T04:29:00;6.18;;;3.08;;
28714;SDS011;15886;49.170;14.572;2023-07-20T04:31:41;6.65;;;2.90;;
28714;SDS011;15886;49.170;14.572;2023-07-20T04:34:12;6.78;;;3.22;;
28714;SDS011;15886;49.170;14.572;2023-07-20T04:36:40;6.38;;;3.30;;
28714;SDS011;15886;49.170;14.572;2023-07-20T04:39:09;6.20;;;3.40;;
28714;SDS011;15886;49.170;14.572;2023-07-20T04:41:43;4.50;;;3.05;;
28714;SDS011;15886;49.170;14.572;2023-07-20T04:44:13;5.38;;;3.40;;
28714;SDS011;15886;49.170;14.572;2023-07-20T04:46:41;7.70;;;3.88;;
28714;SDS011;15886;49.170;14.572;2023-07-20T04:49:10;4.93;;;3.10;;
28714;SDS011;15886;49.170;14.572;2023-07-20T04:51:41;3.97;;;3.20;;
28714;SDS011;15886;49.170;14.572;2023-07-20T04:54:10;4.60;;;2.95;;
28714;SDS011;15886;49.170;14.572;2023-07-20T04:56:38;5.45;;;2.88;;
28714;SDS011;15886;49.170;14.572;2023-07-20T04:59:10;12.50;;;3.45;;
28714;SDS011;15886;49.170;14.572;2023-07-20T05:01:40;6.95;;;3.10;;
28714;SDS011;15886;49.170;14.572;2023-07-20T05:04:10;5.22;;;2.90;;
28714;SDS011;15886;49.170;14.572;2023-07-20T05:06:38;6.15;;;3.47;;
28714;SDS011;15886;49.170;14.572;2023-07-20T05:09:06;6.15;;;3.40;;
28714;SDS011;15886;49.170;14.572;2023-07-20T05:11:39;7.88;;;3.55;;
28714;SDS011;15886;49.170;14.572;2023-07-20T05:14:09;5.93;;;3.40;;
28714;SDS011;15886;49.170;14.572;2023-07-20T05:16:37;5.15;;;3.05;;
28714;SDS011;15886;49.170;14.572;2023-07-20T05:19:06;7.65;;;3.33;;
28714;SDS011;15886;49.170;14.572;2023-07-20T05:21:36;5.85;;;4.22;;
28714;SDS011;15886;49.170;14.572;2023-07-20T05:24:04;6.18;;;3.35;;
28714;SDS011;15886;49.170;14.572;2023-07-20T05:26:33;5.80;;;3.75;;
28714;SDS011;15886;49.170;14.572;2023-07-20T05:29:04;6.25;;;3.05;;
28714;SDS011;15886;49.170;14.572;2023-07-20T05:31:35;4.60;;;3.30;;
28714;SDS011;15886;49.170;14.572;2023-07-20T05:34:05;7.85;;;2.63;;
28714;SDS011;15886;49.170;14.572;2023-07-20T05:36:33;4.65;;;3.25;;
28714;SDS011;15886;49.170;14.572;2023-07-20T05:39:01;6.15;;;3.92;;
28714;SDS011;15886;49.170;14.572;2023-07-20T05:41:29;5.88;;;3.33;;
28714;SDS011;15886;49.170;14.572;2023-07-20T05:43:57;7.60;;;3.67;;
28714;SDS011;15886;49.170;14.572;2023-07-20T05:46:25;8.15;;;3.80;;
28714;SDS011;15886;49.170;14.572;2023-07-20T05:48:56;7.03;;;3.92;;
28714;SDS011;15886;49.170;14.572;2023-07-20T05:51:25;7.53;;;2.95;;
28714;SDS011;15886;49.170;14.572;2023-07-20T05:53:56;9.13;;;4.15;;
28714;SDS011;15886;49.170;14.572;2023-07-20T05:56:24;7.85;;;3.20;;
28714;SDS011;15886;49.170;14.572;2023-07-20T05:58:52;8.00;;;3.58;;
28714;SDS011;15886;49.170;14.572;2023-07-20T06:01:22;8.05;;;3.83;;
28714;SDS011;15886;49.170;14.572;2023-07-20T06:03:55;6.25;;;3.10;;
28714;SDS011;15886;49.170;14.572;2023-07-20T06:06:23;8.20;;;3.70;;
28714;SDS011;15886;49.170;14.572;2023-07-20T06:08:52;5.72;;;3.05;;
28714;SDS011;15886;49.170;14.572;2023-07-20T06:11:21;5.35;;;3.60;;
28714;SDS011;15886;49.170;14.572;2023-07-20T06:13:49;6.38;;;3.00;;
28714;SDS011;15886;49.170;14.572;2023-07-20T06:16:17;5.13;;;3.28;;
28714;SDS011;15886;49.170;14.572;2023-07-20T06:18:46;6.05;;;3.33;;
28714;SDS011;15886;49.170;14.572;2023-07-20T06:21:16;6.45;;;3.45;;
28714;SDS011;15886;49.170;14.572;2023-07-20T06:23:44;7.55;;;3.17;;
28714;SDS011;15886;49.170;14.572;2023-07-20T06:26:14;5.95;;;3.47;;
28714;SDS011;15886;49.170;14.572;2023-07-20T06:28:42;5.60;;;3.58;;
28714;SDS011;15886;49.170;14.572;2023-07-20T06:31:11;4.30;;;3.40;;
28714;SDS011;15886;49.170;14.572;2023-07-20T06:33:39;6.00;;;3.03;;
28714;SDS011;15886;49.170;14.572;2023-07-20T06:36:07;4.95;;;2.95;;
28714;SDS011;15886;49.170;14.572;2023-07-20T06:38:35;9.98;;;4.32;;
28714;SDS011;15886;49.170;14.572;2023-07-20T06:41:05;5.82;;;3.70;;
28714;SDS011;15886;49.170;14.572;2023-07-20T06:43:36;6.72;;;3.90;;
28714;SDS011;15886;49.170;14.572;2023-07-20T06:46:07;8.00;;;3.67;;
28714;SDS011;15886;49.170;14.572;2023-07-20T06:48:35;6.38;;;3.45;;
28714;SDS011;15886;49.170;14.572;2023-07-20T06:51:23;5.85;;;3.78;;
28714;SDS011;15886;49.170;14.572;2023-07-20T06:53:51;4.88;;;3.53;;
28714;SDS011;15886;49.170;14.572;2023-07-20T06:56:20;4.53;;;3.85;;
28714;SDS011;15886;49.170;14.572;2023-07-20T06:58:48;7.88;;;4.03;;
28714;SDS011;15886;49.170;14.572;2023-07-20T07:01:16;6.90;;;3.53;;
28714;SDS011;15886;49.170;14.572;2023-07-20T07:03:44;11.32;;;4.43;;
28714;SDS011;15886;49.170;14.572;2023-07-20T07:06:12;5.15;;;3.60;;
28714;SDS011;15886;49.170;14.572;2023-07-20T07:08:41;3.75;;;2.95;;
28714;SDS011;15886;49.170;14.572;2023-07-20T07:11:11;7.28;;;3.70;;
28714;SDS011;15886;49.170;14.572;2023-07-20T07:13:40;8.07;;;3.70;;
28714;SDS011;15886;49.170;14.572;2023-07-20T07:16:10;3.78;;;2.95;;
28714;SDS011;15886;49.170;14.572;2023-07-20T07:18:39;6.05;;;2.92;;
28714;SDS011;15886;49.170;14.572;2023-07-20T07:21:15;7.30;;;3.00;;
28714;SDS011;15886;49.170;14.572;2023-07-20T07:23:45;5.25;;;2.83;;
28714;SDS011;15886;49.170;14.572;2023-07-20T07:26:13;5.60;;;3.08;;
28714;SDS011;15886;49.170;14.572;2023-07-20T07:28:43;7.30;;;2.70;;
28714;SDS011;15886;49.170;14.572;2023-07-20T07:31:12;5.60;;;2.85;;
28714;SDS011;15886;49.170;14.572;2023-07-20T07:33:41;2.65;;;2.22;;
28714;SDS011;15886;49.170;14.572;2023-07-20T07:36:10;3.30;;;2.08;;
28714;SDS011;15886;49.170;14.572;2023-07-20T07:38:40;3.70;;;2.10;;
28714;SDS011;15886;49.170;14.572;2023-07-20T07:41:11;3.90;;;2.22;;
28714;SDS011;15886;49.170;14.572;2023-07-20T07:43:39;3.15;;;2.30;;
28714;SDS011;15886;49.170;14.572;2023-07-20T07:46:08;7.68;;;2.38;;
28714;SDS011;15886;49.170;14.572;2023-07-20T07:48:37;4.18;;;2.67;;
28714;SDS011;15886;49.170;14.572;2023-07-20T07:51:05;5.88;;;2.90;;
28714;SDS011;15886;49.170;14.572;2023-07-20T07:53:33;4.22;;;2.80;;
28714;SDS011;15886;49.170;14.572;2023-07-20T07:56:04;6.57;;;2.83;;
28714;SDS011;15886;49.170;14.572;2023-07-20T07:58:37;4.57;;;2.58;;
28714;SDS011;15886;49.170;14.572;2023-07-20T08:01:08;5.10;;;2.47;;
28714;SDS011;15886;49.170;14.572;2023-07-20T08:03:36;10.18;;;2.38;;
28714;SDS011;15886;49.170;14.572;2023-07-20T08:06:05;3.40;;;1.85;;
28714;SDS011;15886;49.170;14.572;2023-07-20T08:08:33;3.17;;;1.98;;
28714;SDS011;15886;49.170;14.572;2023-07-20T08:11:04;7.25;;;2.25;;
28714;SDS011;15886;49.170;14.572;2023-07-20T08:13:34;5.88;;;2.53;;
28714;SDS011;15886;49.170;14.572;2023-07-20T08:16:02;4.10;;;2.63;;
28714;SDS011;15886;49.170;14.572;2023-07-20T08:18:31;6.80;;;2.30;;
28714;SDS011;15886;49.170;14.572;2023-07-20T08:21:01;5.85;;;2.67;;
28714;SDS011;15886;49.170;14.572;2023-07-20T08:23:32;4.75;;;1.98;;
28714;SDS011;15886;49.170;14.572;2023-07-20T08:26:00;4.65;;;2.20;;
28714;SDS011;15886;49.170;14.572;2023-07-20T08:28:28;6.60;;;3.17;;
28714;SDS011;15886;49.170;14.572;2023-07-20T08:30:59;4.05;;;1.88;;
28714;SDS011;15886;49.170;14.572;2023-07-20T08:33:39;4.25;;;2.40;;
28714;SDS011;15886;49.170;14.572;2023-07-20T08:36:07;5.00;;;2.88;;
28714;SDS011;15886;49.170;14.572;2023-07-20T08:38:37;4.32;;;2.53;;
28714;SDS011;15886;49.170;14.572;2023-07-20T08:41:06;6.18;;;2.45;;
28714;SDS011;15886;49.170;14.572;2023-07-20T08:43:34;3.58;;;2.22;;
28714;SDS011;15886;49.170;14.572;2023-07-20T08:46:05;4.50;;;2.13;;
28714;SDS011;15886;49.170;14.572;2023-07-20T08:48:33;3.75;;;2.55;;
28714;SDS011;15886;49.170;14.572;2023-07-20T08:51:02;4.40;;;2.22;;
28714;SDS011;15886;49.170;14.572;2023-07-20T08:53:32;2.97;;;2.10;;
28714;SDS011;15886;49.170;14.572;2023-07-20T08:56:00;6.65;;;2.78;;
28714;SDS011;15886;49.170;14.572;2023-07-20T08:58:29;4.68;;;2.50;;
28714;SDS011;15886;49.170;14.572;2023-07-20T09:00:59;9.20;;;3.53;;
28714;SDS011;15886;49.170;14.572;2023-07-20T09:03:30;5.70;;;3.25;;
28714;SDS011;15886;49.170;14.572;2023-07-20T09:05:59;3.50;;;2.38;;
28714;SDS011;15886;49.170;14.572;2023-07-20T09:08:27;3.65;;;2.20;;
28714;SDS011;15886;49.170;14.572;2023-07-20T09:10:57;5.72;;;2.65;;
28714;SDS011;15886;49.170;14.572;2023-07-20T09:13:26;6.35;;;3.15;;
28714;SDS011;15886;49.170;14.572;2023-07-20T09:15:56;6.97;;;3.40;;
28714;SDS011;15886;49.170;14.572;2023-07-20T09:18:29;5.43;;;3.10;;
28714;SDS011;15886;49.170;14.572;2023-07-20T09:20:58;7.88;;;3.20;;
28714;SDS011;15886;49.170;14.572;2023-07-20T09:23:30;4.60;;;3.00;;
28714;SDS011;15886;49.170;14.572;2023-07-20T09:26:11;3.92;;;3.00;;
28714;SDS011;15886;49.170;14.572;2023-07-20T09:28:41;8.68;;;3.63;;
28714;SDS011;15886;49.170;14.572;2023-07-20T09:31:16;8.45;;;3.38;;
28714;SDS011;15886;49.170;14.572;2023-07-20T09:33:48;4.25;;;3.20;;
28714;SDS011;15886;49.170;14.572;2023-07-20T09:36:19;5.60;;;3.20;;
28714;SDS011;15886;49.170;14.572;2023-07-20T09:39:09;8.82;;;3.10;;
28714;SDS011;15886;49.170;14.572;2023-07-20T09:41:39;7.60;;;3.75;;
28714;SDS011;15886;49.170;14.572;2023-07-20T09:44:16;7.28;;;3.30;;
28714;SDS011;15886;49.170;14.572;2023-07-20T09:46:49;6.63;;;3.38;;
28714;SDS011;15886;49.170;14.572;2023-07-20T09:49:24;4.45;;;2.65;;
28714;SDS011;15886;49.170;14.572;2023-07-20T09:51:57;3.33;;;2.65;;
28714;SDS011;15886;49.170;14.572;2023-07-20T09:54:31;7.82;;;3.63;;
28714;SDS011;15886;49.170;14.572;2023-07-20T09:57:00;4.85;;;2.65;;
28714;SDS011;15886;49.170;14.572;2023-07-20T09:59:29;4.40;;;3.20;;
28714;SDS011;15886;49.170;14.572;2023-07-20T10:01:58;5.55;;;2.38;;
28714;SDS011;15886;49.170;14.572;2023-07-20T10:04:28;3.45;;;2.60;;
28714;SDS011;15886;49.170;14.572;2023-07-20T10:06:56;6.10;;;2.20;;
28714;SDS011;15886;49.170;14.572;2023-07-20T10:09:30;3.38;;;2.58;;
28714;SDS011;15886;49.170;14.572;2023-07-20T10:12:01;5.35;;;2.47;;
28714;SDS011;15886;49.170;14.572;2023-07-20T10:14:38;2.70;;;2.00;;
28714;SDS011;15886;49.170;14.572;2023-07-20T10:17:09;3.85;;;2.67;;
28714;SDS011;15886;49.170;14.572;2023-07-20T10:19:43;6.63;;;2.75;;
28714;SDS011;15886;49.170;14.572;2023-07-20T10:22:18;4.72;;;2.40;;
28714;SDS011;15886;49.170;14.572;2023-07-20T10:24:47;6.15;;;2.28;;
28714;SDS011;15886;49.170;14.572;2023-07-20T10:27:16;3.90;;;1.95;;
28714;SDS011;15886;49.170;14.572;2023-07-20T10:29:46;3.45;;;2.15;;
28714;SDS011;15886;49.170;14.572;2023-07-20T10:32:15;3.67;;;2.13;;
28714;SDS011;15886;49.170;14.572;2023-07-20T10:34:50;5.30;;;2.35;;
28714;SDS011;15886;49.170;14.572;2023-07-20T10:40:38;4.35;;;1.85;;
28714;SDS011;15886;49.170;14.572;2023-07-20T10:43:08;4.53;;;1.98;;
28714;SDS011;15886;49.170;14.572;2023-07-20T10:45:45;3.70;;;2.03;;
28714;SDS011;15886;49.170;14.572;2023-07-20T10:48:18;5.53;;;2.42;;
28714;SDS011;15886;49.170;14.572;2023-07-20T10:53:34;4.45;;;2.13;;
28714;SDS011;15886;49.170;14.572;2023-07-20T10:56:11;2.42;;;1.85;;
28714;SDS011;15886;49.170;14.572;2023-07-20T10:58:40;4.82;;;2.30;;
28714;SDS011;15886;49.170;14.572;2023-07-20T11:01:10;3.65;;;1.80;;
28714;SDS011;15886;49.170;14.572;2023-07-20T11:03:42;6.20;;;2.13;;
28714;SDS011;15886;49.170;14.572;2023-07-20T11:11:35;2.67;;;1.80;;
28714;SDS011;15886;49.170;14.572;2023-07-20T11:14:05;2.85;;;1.83;;
28714;SDS011;15886;49.170;14.572;2023-07-20T11:16:46;2.83;;;1.75;;
28714;SDS011;15886;49.170;14.572;2023-07-20T11:19:20;2.55;;;1.75;;
28714;SDS011;15886;49.170;14.572;2023-07-20T11:21:58;5.90;;;1.70;;
28714;SDS011;15886;49.170;14.572;2023-07-20T11:24:29;2.45;;;1.77;;
28714;SDS011;15886;49.170;14.572;2023-07-20T11:26:57;2.72;;;1.92;;
28714;SDS011;15886;49.170;14.572;2023-07-20T11:29:25;5.22;;;2.22;;
28714;SDS011;15886;49.170;14.572;2023-07-20T11:31:57;7.55;;;1.77;;
28714;SDS011;15886;49.170;14.572;2023-07-20T11:34:25;4.05;;;1.70;;
28714;SDS011;15886;49.170;14.572;2023-07-20T11:36:56;2.20;;;1.65;;
28714;SDS011;15886;49.170;14.572;2023-07-20T11:39:27;3.83;;;1.42;;
28714;SDS011;15886;49.170;14.572;2023-07-20T11:41:57;2.45;;;1.60;;
28714;SDS011;15886;49.170;14.572;2023-07-20T11:44:26;2.35;;;1.63;;
28714;SDS011;15886;49.170;14.572;2023-07-20T11:49:35;2.42;;;1.67;;
28714;SDS011;15886;49.170;14.572;2023-07-20T11:52:10;2.42;;;1.48;;
28714;SDS011;15886;49.170;14.572;2023-07-20T11:54:40;2.42;;;1.50;;
28714;SDS011;15886;49.170;14.572;2023-07-20T11:57:19;10.10;;;1.60;;
28714;SDS011;15886;49.170;14.572;2023-07-20T11:59:54;2.83;;;1.35;;
28714;SDS011;15886;49.170;14.572;2023-07-20T12:02:32;4.22;;;1.20;;
28714;SDS011;15886;49.170;14.572;2023-07-20T12:05:02;6.93;;;1.75;;
28714;SDS011;15886;49.170;14.572;2023-07-20T12:07:32;2.85;;;1.60;;
28714;SDS011;15886;49.170;14.572;2023-07-20T12:10:11;4.43;;;1.80;;
28714;SDS011;15886;49.170;14.572;2023-07-20T12:12:40;1.38;;;1.20;;
28714;SDS011;15886;49.170;14.572;2023-07-20T12:15:13;2.40;;;1.30;;
28714;SDS011;15886;49.170;14.572;2023-07-20T12:17:42;1.98;;;1.42;;
28714;SDS011;15886;49.170;14.572;2023-07-20T12:20:12;2.40;;;1.42;;
28714;SDS011;15886;49.170;14.572;2023-07-20T12:22:43;4.28;;;1.52;;
28714;SDS011;15886;49.170;14.572;2023-07-20T12:25:11;2.58;;;1.40;;
28714;SDS011;15886;49.170;14.572;2023-07-20T12:27:40;3.80;;;1.75;;
28714;SDS011;15886;49.170;14.572;2023-07-20T12:30:10;2.55;;;1.58;;
28714;SDS011;15886;49.170;14.572;2023-07-20T12:32:39;3.47;;;1.65;;
28714;SDS011;15886;49.170;14.572;2023-07-20T12:35:08;8.95;;;1.52;;
28714;SDS011;15886;49.170;14.572;2023-07-20T12:37:40;2.70;;;1.23;;
28714;SDS011;15886;49.170;14.572;2023-07-20T12:40:10;2.10;;;1.40;;
28714;SDS011;15886;49.170;14.572;2023-07-20T12:42:39;4.15;;;1.58;;
28714;SDS011;15886;49.170;14.572;2023-07-20T12:45:08;3.90;;;1.40;;
28714;SDS011;15886;49.170;14.572;2023-07-20T12:47:39;2.40;;;1.23;;
28714;SDS011;15886;49.170;14.572;2023-07-20T12:50:09;2.15;;;1.55;;
28714;SDS011;15886;49.170;14.572;2023-07-20T12:52:38;7.90;;;1.60;;
28714;SDS011;15886;49.170;14.572;2023-07-20T12:55:07;3.75;;;1.42;;
28714;SDS011;15886;49.170;14.572;2023-07-20T12:57:35;11.45;;;2.35;;
28714;SDS011;15886;49.170;14.572;2023-07-20T13:00:04;3.20;;;1.27;;
28714;SDS011;15886;49.170;14.572;2023-07-20T13:02:34;5.88;;;1.65;;
28714;SDS011;15886;49.170;14.572;2023-07-20T13:05:04;1.52;;;1.20;;
28714;SDS011;15886;49.170;14.572;2023-07-20T13:07:33;4.13;;;2.53;;
28714;SDS011;15886;49.170;14.572;2023-07-20T13:10:05;2.20;;;1.40;;
28714;SDS011;15886;49.170;14.572;2023-07-20T13:12:35;5.03;;;1.17;;
28714;SDS011;15886;49.170;14.572;2023-07-20T13:15:04;3.70;;;1.63;;
28714;SDS011;15886;49.170;14.572;2023-07-20T13:17:36;3.08;;;1.20;;
28714;SDS011;15886;49.170;14.572;2023-07-20T13:20:06;3.40;;;1.58;;
28714;SDS011;15886;49.170;14.572;2023-07-20T13:22:38;2.15;;;1.42;;
28714;SDS011;15886;49.170;14.572;2023-07-20T13:25:08;3.45;;;1.60;;
28714;SDS011;15886;49.170;14.572;2023-07-20T13:27:37;2.50;;;1.38;;
28714;SDS011;15886;49.170;14.572;2023-07-20T13:30:05;2.60;;;1.52;;
28714;SDS011;15886;49.170;14.572;2023-07-20T13:32:36;1.90;;;1.30;;
28714;SDS011;15886;49.170;14.572;2023-07-20T13:35:07;1.42;;;1.27;;
28714;SDS011;15886;49.170;14.572;2023-07-20T13:37:36;2.40;;;1.20;;
28714;SDS011;15886;49.170;14.572;2023-07-20T13:40:06;4.80;;;2.17;;
28714;SDS011;15886;49.170;14.572;2023-07-20T13:42:40;3.55;;;1.33;;
28714;SDS011;15886;49.170;14.572;2023-07-20T13:45:08;2.60;;;1.55;;
28714;SDS011;15886;49.170;14.572;2023-07-20T13:47:37;2.97;;;1.50;;
28714;SDS011;15886;49.170;14.572;2023-07-20T13:50:05;3.55;;;1.55;;
28714;SDS011;15886;49.170;14.572;2023-07-20T13:52:34;3.47;;;1.50;;
28714;SDS011;15886;49.170;14.572;2023-07-20T13:55:06;4.57;;;1.63;;
28714;SDS011;15886;49.170;14.572;2023-07-20T13:57:35;1.60;;;1.10;;
28714;SDS011;15886;49.170;14.572;2023-07-20T14:00:03;1.40;;;1.27;;
28714;SDS011;15886;49.170;14.572;2023-07-20T14:02:38;2.35;;;1.25;;
28714;SDS011;15886;49.170;14.572;2023-07-20T14:05:09;2.80;;;1.30;;
28714;SDS011;15886;49.170;14.572;2023-07-20T14:07:41;2.00;;;1.15;;
28714;SDS011;15886;49.170;14.572;2023-07-20T14:10:10;2.10;;;1.38;;
28714;SDS011;15886;49.170;14.572;2023-07-20T14:12:42;2.50;;;1.30;;
28714;SDS011;15886;49.170;14.572;2023-07-20T14:15:10;2.85;;;1.60;;
28714;SDS011;15886;49.170;14.572;2023-07-20T14:17:39;2.40;;;1.65;;
28714;SDS011;15886;49.170;14.572;2023-07-20T14:20:07;3.20;;;1.25;;
28714;SDS011;15886;49.170;14.572;2023-07-20T14:22:39;1.92;;;1.33;;
28714;SDS011;15886;49.170;14.572;2023-07-20T14:25:09;6.25;;;1.42;;
28714;SDS011;15886;49.170;14.572;2023-07-20T14:27:37;1.92;;;1.20;;
28714;SDS011;15886;49.170;14.572;2023-07-20T14:30:05;2.72;;;1.40;;
28714;SDS011;15886;49.170;14.572;2023-07-20T14:32:34;3.42;;;1.30;;
28714;SDS011;15886;49.170;14.572;2023-07-20T14:35:02;2.58;;;1.25;;
28714;SDS011;15886;49.170;14.572;2023-07-20T14:37:30;1.60;;;1.20;;
28714;SDS011;15886;49.170;14.572;2023-07-20T14:39:59;5.10;;;1.20;;
28714;SDS011;15886;49.170;14.572;2023-07-20T14:42:27;1.63;;;1.20;;
28714;SDS011;15886;49.170;14.572;2023-07-20T14:44:56;2.05;;;1.35;;
28714;SDS011;15886;49.170;14.572;2023-07-20T14:47:24;4.07;;;1.27;;
28714;SDS011;15886;49.170;14.572;2023-07-20T14:49:52;1.52;;;1.00;;
28714;SDS011;15886;49.170;14.572;2023-07-20T14:52:21;2.63;;;1.63;;
28714;SDS011;15886;49.170;14.572;2023-07-20T14:54:49;1.83;;;1.02;;
28714;SDS011;15886;49.170;14.572;2023-07-20T14:57:18;7.82;;;1.70;;
28714;SDS011;15886;49.170;14.572;2023-07-20T14:59:49;3.22;;;1.10;;
28714;SDS011;15886;49.170;14.572;2023-07-20T15:02:18;2.28;;;1.45;;
28714;SDS011;15886;49.170;14.572;2023-07-20T15:04:49;3.53;;;1.20;;
28714;SDS011;15886;49.170;14.572;2023-07-20T15:07:20;10.10;;;1.95;;
28714;SDS011;15886;49.170;14.572;2023-07-20T15:10:05;2.55;;;1.25;;
28714;SDS011;15886;49.170;14.572;2023-07-20T15:13:13;1.98;;;1.10;;